createdAt,value
2024-05-09T00:00:22.033Z,100606.25
2024-05-09T00:02:52.812Z,100602.38
2024-05-09T00:05:19.260Z,100602.91
2024-05-09T00:07:45.698Z,100599.97
2024-05-09T00:10:22.064Z,100595.88
2024-05-09T00:12:54.941Z,100600.63
2024-05-09T00:15:21.204Z,100598.69
2024-05-09T00:17:47.655Z,100595.69
2024-05-09T00:20:17.862Z,100595.94
2024-05-09T00:22:50.402Z,100595.66
2024-05-09T00:25:16.757Z,100591.97
2024-05-09T00:27:43.017Z,100595.59
2024-05-09T00:30:14.350Z,100584.28
2024-05-09T00:32:43.909Z,100577.59
2024-05-09T00:35:10.300Z,100583.69
2024-05-09T00:37:36.608Z,100587.56
2024-05-09T00:40:03.543Z,100585.06
2024-05-09T00:42:29.899Z,100584.28
2024-05-09T00:44:56.192Z,100593.16
2024-05-09T00:47:22.723Z,100590.94
2024-05-09T00:49:49.238Z,100599.66
2024-05-09T00:52:15.658Z,100584.97
2024-05-09T00:54:41.934Z,100589.47
2024-05-09T00:57:08.234Z,100584.47
2024-05-09T00:59:34.651Z,100580.03
2024-05-09T01:02:01.068Z,100581.13
2024-05-09T01:04:27.476Z,100581.72
2024-05-09T01:06:53.743Z,100587.91
2024-05-09T01:09:20.033Z,100586.50
2024-05-09T01:11:46.501Z,100589.06
2024-05-09T01:14:12.847Z,100588.72
2024-05-09T01:16:39.134Z,100590.69
2024-05-09T01:19:05.509Z,100590.09
2024-05-09T01:21:31.855Z,100594.53
2024-05-09T01:23:58.135Z,100591.53
2024-05-09T01:26:24.461Z,100593.25
2024-05-09T01:28:50.848Z,100592.72
2024-05-09T01:31:17.159Z,100587.38
2024-05-09T01:33:43.602Z,100585.13
2024-05-09T01:36:09.944Z,100586.81
2024-05-09T01:38:36.323Z,100588.50
2024-05-09T01:41:02.761Z,100580.72
2024-05-09T01:43:29.071Z,100578.53
2024-05-09T01:45:55.359Z,100579.34
2024-05-09T01:48:21.881Z,100579.69
2024-05-09T01:50:48.271Z,100585.53
2024-05-09T01:53:15.280Z,100590.28
2024-05-09T01:55:41.794Z,100584.09
2024-05-09T01:58:08.062Z,100582.50
2024-05-09T02:00:39.611Z,100574.47
2024-05-09T02:03:08.630Z,100579.69
2024-05-09T02:05:35.341Z,100572.41
2024-05-09T02:08:01.718Z,100566.31
2024-05-09T02:21:51.073Z,100573.66
2024-05-09T02:24:17.353Z,100571.97
2024-05-09T02:26:43.628Z,100572.75
2024-05-09T02:29:10.018Z,100571.31
2024-05-09T02:31:36.317Z,100573.25
2024-05-09T02:34:02.760Z,100568.25
2024-05-09T02:36:29.146Z,100569.38
2024-05-09T02:38:55.421Z,100565.84
2024-05-09T02:41:21.787Z,100564.25
2024-05-09T02:43:48.096Z,100564.06
2024-05-09T02:46:14.360Z,100568.75
2024-05-09T02:48:40.732Z,100570.47
2024-05-09T02:51:07.256Z,100572.91
2024-05-09T02:53:33.771Z,100570.88
2024-05-09T02:56:00.310Z,100564.78
2024-05-09T02:58:26.607Z,100564.84
2024-05-09T03:00:52.964Z,100572.09
2024-05-09T03:03:19.579Z,100573.50
2024-05-09T03:05:46.597Z,100569.59
2024-05-09T03:08:13.345Z,100569.09
2024-05-09T03:10:39.968Z,100570.50
2024-05-09T03:13:06.346Z,100566.59
2024-05-09T03:15:32.599Z,100564.09
2024-05-09T03:17:58.989Z,100570.78
2024-05-09T03:20:32.426Z,100568.34
2024-05-09T03:23:01.047Z,100569.78
2024-05-09T03:25:27.398Z,100568.69
2024-05-09T03:27:53.655Z,100562.25
2024-05-09T03:30:26.200Z,100565.09
2024-05-09T03:33:01.948Z,100570.69
2024-05-09T03:35:28.391Z,100562.88
2024-05-09T03:37:54.693Z,100574.81
2024-05-09T03:40:26.084Z,100568.69
2024-05-09T03:42:53.082Z,100567.06
2024-05-09T03:45:19.348Z,100572.13
2024-05-09T03:47:45.896Z,100562.09
2024-05-09T03:50:18.490Z,100569.84
2024-05-09T03:52:52.255Z,100564.78
2024-05-09T03:55:18.555Z,100568.44
2024-05-09T03:57:44.856Z,100559.25
2024-05-09T04:00:17.676Z,100561.22
2024-05-09T04:02:49.092Z,100562.59
2024-05-09T04:05:15.569Z,100571.25
2024-05-09T04:07:41.853Z,100574.00
2024-05-09T04:10:11.256Z,100568.13
2024-05-09T04:12:43.199Z,100568.41
2024-05-09T04:15:12.874Z,100573.06
2024-05-09T04:17:39.954Z,100574.75
2024-05-09T04:20:08.375Z,100578.38
2024-05-09T04:22:34.807Z,100569.13
2024-05-09T04:25:01.077Z,100569.38
2024-05-09T04:27:27.379Z,100566.84
2024-05-09T04:29:53.646Z,100567.97
2024-05-09T04:32:19.991Z,100573.25
2024-05-09T04:34:46.356Z,100568.81
2024-05-09T04:37:12.806Z,100572.44
2024-05-09T04:39:39.108Z,100570.78
2024-05-09T04:42:05.373Z,100578.22
2024-05-09T04:44:31.679Z,100570.69
2024-05-09T04:46:58.036Z,100575.13
2024-05-09T04:49:24.468Z,100575.94
2024-05-09T04:51:50.849Z,100576.19
2024-05-09T04:54:26.464Z,100586.00
2024-05-09T04:57:00.292Z,100589.00
2024-05-09T04:59:26.689Z,100586.00
2024-05-09T05:01:53.119Z,100576.72
2024-05-09T05:04:19.568Z,100578.41
2024-05-09T05:06:45.871Z,100579.41
2024-05-09T05:09:12.168Z,100581.00
2024-05-09T05:11:38.529Z,100580.13
2024-05-09T05:14:04.895Z,100575.38
2024-05-09T05:16:31.200Z,100586.84
2024-05-09T05:18:57.502Z,100583.72
2024-05-09T05:21:23.984Z,100578.63
2024-05-09T05:23:50.353Z,100582.50
2024-05-09T05:26:16.723Z,100582.22
2024-05-09T05:28:43.046Z,100582.69
2024-05-09T05:31:09.436Z,100585.41
2024-05-09T05:33:35.815Z,100576.97
2024-05-09T05:36:02.149Z,100576.09
2024-05-09T05:38:28.881Z,100573.56
2024-05-09T05:40:55.356Z,100577.09
2024-05-09T05:43:21.828Z,100577.06
2024-05-09T05:45:48.165Z,100582.06
2024-05-09T05:48:14.576Z,100582.53
2024-05-09T05:50:41.007Z,100578.91
2024-05-09T05:53:08.286Z,100579.19
2024-05-09T05:55:35.178Z,100581.06
2024-05-09T05:58:01.483Z,100576.50
2024-05-09T06:00:34.459Z,100581.16
2024-05-09T06:03:04.560Z,100583.59
2024-05-09T06:05:30.985Z,100578.19
2024-05-09T06:07:57.361Z,100587.31
2024-05-09T06:10:29.645Z,100586.13
2024-05-09T06:13:01.225Z,100586.38
2024-05-09T06:15:27.500Z,100581.19
2024-05-09T06:17:54.145Z,100579.13
2024-05-09T06:20:27.387Z,100584.97
2024-05-09T06:23:01.074Z,100578.59
2024-05-09T06:25:27.330Z,100576.66
2024-05-09T06:27:53.603Z,100571.75
2024-05-09T06:30:26.287Z,100576.19
2024-05-09T06:33:01.585Z,100584.03
2024-05-09T06:35:28.092Z,100582.25
2024-05-09T06:37:54.586Z,100575.88
2024-05-09T06:40:25.735Z,100577.78
2024-05-09T06:43:00.287Z,100578.59
2024-05-09T06:45:26.539Z,100572.00
2024-05-09T06:47:53.123Z,100572.00
2024-05-09T06:50:24.021Z,100572.03
2024-05-09T06:52:54.292Z,100568.13
2024-05-09T06:55:20.577Z,100577.16
2024-05-09T06:57:46.852Z,100574.25
2024-05-09T07:00:19.160Z,100569.81
2024-05-09T07:02:53.772Z,100571.47
2024-05-09T07:05:20.240Z,100573.03
2024-05-09T07:07:46.625Z,100569.91
2024-05-09T07:10:18.081Z,100572.72
2024-05-09T07:12:51.449Z,100568.03
2024-05-09T07:15:17.702Z,100573.13
2024-05-09T07:17:44.064Z,100568.31
2024-05-09T07:20:16.186Z,100568.69
2024-05-09T07:22:46.317Z,100573.47
2024-05-09T07:25:12.688Z,100571.72
2024-05-09T07:27:38.967Z,100579.31
2024-05-09T07:30:07.141Z,100563.16
2024-05-09T07:32:33.657Z,100577.59
2024-05-09T07:35:00.205Z,100566.97
2024-05-09T07:37:26.588Z,100564.22
2024-05-09T07:39:52.846Z,100562.09
2024-05-09T07:42:19.121Z,100566.84
2024-05-09T07:44:45.387Z,100566.75
2024-05-09T07:48:27.583Z,100557.66
2024-05-09T07:53:32.365Z,100559.63
2024-05-09T07:55:13.448Z,100556.69
2024-05-09T07:57:39.875Z,100558.19
2024-05-09T08:00:06.755Z,100561.38
2024-05-09T08:02:33.272Z,100557.44
2024-05-09T08:04:59.687Z,100555.28
2024-05-09T08:07:26.017Z,100556.44
2024-05-09T08:09:52.324Z,100555.16
2024-05-09T08:12:18.651Z,100556.13
2024-05-09T08:14:44.975Z,100551.47
2024-05-09T08:17:11.302Z,100564.59
2024-05-09T08:19:37.682Z,100563.44
2024-05-09T08:22:04.074Z,100562.75
2024-05-09T08:24:30.564Z,100560.22
2024-05-09T08:26:56.891Z,100551.28
2024-05-09T08:29:23.168Z,100544.75
2024-05-09T08:31:49.507Z,100543.41
2024-05-09T08:34:16.047Z,100544.03
2024-05-09T08:36:42.473Z,100549.28
2024-05-09T08:39:08.796Z,100552.88
2024-05-09T08:41:35.124Z,100545.03
2024-05-09T08:44:01.422Z,100548.78
2024-05-09T08:46:27.909Z,100541.97
2024-05-09T08:48:54.528Z,100544.63
2024-05-09T08:51:20.847Z,100541.38
2024-05-09T08:53:47.136Z,100537.84
2024-05-09T08:56:13.437Z,100538.25
2024-05-09T08:58:39.704Z,100535.16
2024-05-09T09:01:06.068Z,100527.22
2024-05-09T10:00:21.127Z,100498.50
2024-05-09T10:02:53.196Z,100507.34
2024-05-09T10:05:19.567Z,100502.97
2024-05-09T10:07:45.895Z,100502.31
2024-05-09T10:10:16.233Z,100496.13
2024-05-09T10:12:42.738Z,100500.28
2024-05-09T10:15:09.020Z,100489.06
2024-05-09T10:17:35.444Z,100497.88
2024-05-09T10:20:01.809Z,100493.03
2024-05-09T10:22:28.117Z,100484.94
2024-05-09T10:24:54.573Z,100487.41
2024-05-09T10:27:20.895Z,100484.44
2024-05-09T10:29:47.158Z,100478.19
2024-05-09T10:32:13.427Z,100479.84
2024-05-09T10:34:39.748Z,100488.59
2024-05-09T10:37:06.138Z,100481.31
2024-05-09T10:39:32.478Z,100483.03
2024-05-09T10:41:58.782Z,100485.75
2024-05-09T10:44:25.097Z,100482.09
2024-05-09T10:46:51.370Z,100482.56
2024-05-09T10:49:17.890Z,100474.75
2024-05-09T10:51:44.420Z,100467.19
2024-05-09T10:54:10.740Z,100465.28
2024-05-09T10:56:37.017Z,100461.91
2024-05-09T10:59:03.288Z,100464.16
2024-05-09T11:01:29.676Z,100464.69
2024-05-09T11:03:56.251Z,100457.84
2024-05-09T11:06:22.637Z,100449.53
2024-05-09T11:08:48.911Z,100451.72
2024-05-09T11:11:15.259Z,100460.59
2024-05-09T11:13:41.600Z,100452.91
2024-05-09T11:16:08.004Z,100452.97
2024-05-09T11:18:37.931Z,100443.31
2024-05-09T11:21:05.458Z,100439.66
2024-05-09T11:23:31.759Z,100443.13
2024-05-09T11:25:58.050Z,100448.63
2024-05-09T11:28:24.371Z,100437.16
2024-05-09T11:30:50.651Z,100442.75
2024-05-09T11:33:16.982Z,100424.09
2024-05-09T11:35:43.273Z,100443.16
2024-05-09T11:38:09.542Z,100427.09
2024-05-09T11:40:35.845Z,100422.22
2024-05-09T11:43:02.199Z,100429.94
2024-05-09T11:45:28.588Z,100419.97
2024-05-09T11:47:54.968Z,100414.28
2024-05-09T11:50:27.216Z,100416.38
2024-05-09T11:52:58.729Z,100415.03
2024-05-09T11:55:27.553Z,100414.56
2024-05-09T11:57:54.762Z,100418.22
2024-05-09T12:00:29.280Z,100403.75
2024-05-09T12:03:02.502Z,100407.19
2024-05-09T12:05:29.189Z,100403.28
2024-05-09T12:07:55.658Z,100411.22
2024-05-09T12:10:26.270Z,100401.63
2024-05-09T12:12:58.463Z,100401.41
2024-05-09T12:15:24.827Z,100403.34
2024-05-09T12:17:51.338Z,100399.09
2024-05-09T12:20:25.773Z,100397.72
2024-05-09T12:22:59.347Z,100394.97
2024-05-09T12:25:25.684Z,100389.66
2024-05-09T12:27:52.041Z,100392.78
2024-05-09T12:30:28.836Z,100392.00
2024-05-09T12:33:02.458Z,100384.72
2024-05-09T12:35:28.790Z,100385.84
2024-05-09T12:37:55.067Z,100385.81
2024-05-09T12:40:30.707Z,100380.75
2024-05-09T12:43:01.379Z,100369.84
2024-05-09T12:45:27.676Z,100366.81
2024-05-09T12:47:54.108Z,100361.53
2024-05-09T12:50:29.146Z,100365.56
2024-05-09T12:52:58.319Z,100353.56
2024-05-09T12:55:24.628Z,100336.81
2024-05-09T12:57:50.942Z,100352.06
2024-05-09T13:00:23.978Z,100347.00
2024-05-09T13:02:57.379Z,100352.28
2024-05-09T13:05:24.022Z,100345.56
2024-05-09T13:07:50.573Z,100331.66
2024-05-09T13:10:25.517Z,100336.78
2024-05-09T13:12:57.779Z,100331.34
2024-05-09T13:15:24.151Z,100332.06
2024-05-09T13:17:50.509Z,100328.31
2024-05-09T13:20:25.732Z,100329.22
2024-05-09T13:22:55.841Z,100333.50
2024-05-09T13:25:22.111Z,100328.84
2024-05-09T13:27:48.466Z,100334.84
2024-05-09T13:30:21.899Z,100326.44
2024-05-09T13:32:55.514Z,100318.56
2024-05-09T13:35:21.868Z,100328.75
2024-05-09T13:37:48.192Z,100326.44
2024-05-09T13:40:14.625Z,100322.34
2024-05-09T13:42:41.018Z,100318.78
2024-05-09T13:45:07.304Z,100317.72
2024-05-09T13:47:33.672Z,100302.97
2024-05-09T13:50:00.173Z,100311.69
2024-05-09T13:52:26.496Z,100302.53
2024-05-09T13:54:52.800Z,100303.25
2024-05-09T13:57:19.148Z,100300.06
2024-05-09T13:59:45.401Z,100296.22
2024-05-09T14:02:11.821Z,100289.97
2024-05-09T14:04:38.370Z,100300.91
2024-05-09T14:07:04.910Z,100298.53
2024-05-09T14:09:31.268Z,100293.66
2024-05-09T14:11:57.614Z,100288.00
2024-05-09T14:14:24.007Z,100286.56
2024-05-09T14:16:50.362Z,100291.63
2024-05-09T14:19:16.848Z,100291.78
2024-05-09T14:21:43.322Z,100285.16
2024-05-09T14:24:09.624Z,100272.56
2024-05-09T14:26:35.879Z,100279.34
2024-05-09T14:29:02.254Z,100273.16
2024-05-09T14:31:28.709Z,100277.75
2024-05-09T14:33:55.197Z,100268.81
2024-05-09T14:36:21.714Z,100274.78
2024-05-09T14:38:47.976Z,100266.81
2024-05-09T14:41:14.252Z,100266.00
2024-05-09T14:43:40.744Z,100260.28
2024-05-09T14:46:07.181Z,100253.72
2024-05-09T14:48:33.660Z,100255.91
2024-05-09T14:51:00.110Z,100252.47
2024-05-09T14:53:26.387Z,100254.91
2024-05-09T14:55:52.707Z,100246.88
2024-05-09T14:58:19.280Z,100244.50
2024-05-09T15:00:49.573Z,100238.69
2024-05-09T15:03:17.526Z,100240.06
2024-05-09T15:05:44.000Z,100238.94
2024-05-09T15:08:10.358Z,100235.66
2024-05-09T15:10:37.556Z,100235.84
2024-05-09T15:13:04.510Z,100230.13
2024-05-09T15:15:31.191Z,100230.25
2024-05-09T15:17:57.753Z,100230.69
2024-05-09T15:20:31.448Z,100232.59
2024-05-09T15:23:01.756Z,100228.13
2024-05-09T15:25:28.100Z,100231.53
2024-05-09T15:27:54.433Z,100224.44
2024-05-09T15:30:27.577Z,100226.53
2024-05-09T15:32:56.616Z,100225.47
2024-05-09T15:35:22.976Z,100216.06
2024-05-09T15:37:49.225Z,100216.59
2024-05-09T15:40:25.848Z,100219.56
2024-05-09T15:43:01.301Z,100219.34
2024-05-09T15:45:27.642Z,100222.66
2024-05-09T15:47:54.018Z,100214.44
2024-05-09T15:50:28.573Z,100200.84
2024-05-09T15:53:02.435Z,100201.81
2024-05-09T15:55:28.738Z,100198.69
2024-05-09T15:57:55.054Z,100197.91
2024-05-09T16:00:28.750Z,100189.66
2024-05-09T16:03:02.480Z,100189.69
2024-05-09T16:05:28.912Z,100183.94
2024-05-09T16:07:55.318Z,100183.50
2024-05-09T16:10:25.963Z,100184.75
2024-05-09T16:12:57.920Z,100180.09
2024-05-09T16:15:24.211Z,100181.41
2024-05-09T16:17:50.652Z,100180.44
2024-05-09T16:20:26.389Z,100182.19
2024-05-09T16:23:00.773Z,100182.56
2024-05-09T16:25:27.064Z,100179.56
2024-05-09T16:27:53.490Z,100172.84
2024-05-09T16:30:27.840Z,100179.78
2024-05-09T16:33:00.404Z,100182.22
2024-05-09T16:35:26.800Z,100176.88
2024-05-09T16:37:53.174Z,100175.84
2024-05-09T16:40:29.288Z,100180.75
2024-05-09T16:43:01.040Z,100180.69
2024-05-09T16:45:27.343Z,100176.69
2024-05-09T16:47:53.718Z,100180.69
2024-05-09T16:50:26.423Z,100179.16
2024-05-09T16:52:57.724Z,100175.38
2024-05-09T16:55:24.181Z,100174.03
2024-05-09T16:57:50.610Z,100182.47
2024-05-09T17:00:25.539Z,100181.41
2024-05-09T17:02:58.177Z,100190.69
2024-05-09T17:05:24.756Z,100178.59
2024-05-09T17:07:51.267Z,100178.44
2024-05-09T17:10:26.470Z,100182.47
2024-05-09T17:12:58.441Z,100186.81
2024-05-09T17:15:24.735Z,100186.19
2024-05-09T17:17:51.068Z,100183.34
2024-05-09T17:20:28.833Z,100187.19
2024-05-09T17:22:59.684Z,100186.19
2024-05-09T17:25:25.959Z,100180.16
2024-05-09T17:27:52.276Z,100179.53
2024-05-09T17:30:28.320Z,100180.41
2024-05-09T17:32:58.974Z,100177.00
2024-05-09T17:35:28.385Z,100181.97
2024-05-09T17:37:54.679Z,100178.22
2024-05-09T17:40:30.084Z,100186.31
2024-05-09T17:42:59.757Z,100176.38
2024-05-09T17:45:26.084Z,100189.53
2024-05-09T17:47:52.496Z,100187.66
2024-05-09T17:50:27.249Z,100186.19
2024-05-09T17:53:00.021Z,100184.53
2024-05-09T17:55:26.392Z,100180.25
2024-05-09T17:57:52.747Z,100178.59
2024-05-09T18:00:28.772Z,100181.63
2024-05-09T18:03:03.105Z,100180.56
2024-05-09T18:05:29.553Z,100169.47
2024-05-09T18:07:55.900Z,100172.16
2024-05-09T18:10:26.166Z,100177.44
2024-05-09T18:12:59.404Z,100158.25
2024-05-09T18:15:25.735Z,100179.78
2024-05-09T18:17:52.245Z,100173.66
2024-05-09T18:20:28.610Z,100172.91
2024-05-09T18:23:03.755Z,100176.66
2024-05-09T18:25:30.029Z,100176.66
2024-05-09T18:27:56.391Z,100179.69
2024-05-09T18:30:28.286Z,100178.97
2024-05-09T18:33:00.670Z,100182.72
2024-05-09T18:35:27.090Z,100182.00
2024-05-09T18:37:53.350Z,100190.88
2024-05-09T18:40:27.338Z,100189.53
2024-05-09T18:42:57.693Z,100194.66
2024-05-09T18:45:24.032Z,100188.78
2024-05-09T18:47:50.336Z,100195.47
2024-05-09T18:50:24.704Z,100189.25
2024-05-09T18:52:58.482Z,100197.09
2024-05-09T18:55:24.791Z,100206.84
2024-05-09T18:57:51.126Z,100204.69
2024-05-09T19:00:30.864Z,100211.47
2024-05-09T19:03:01.873Z,100212.56
2024-05-09T19:05:28.478Z,100221.34
2024-05-09T19:07:54.943Z,100220.19
2024-05-09T19:10:23.065Z,100213.88
2024-05-09T19:12:52.615Z,100219.66
2024-05-09T19:15:18.929Z,100229.09
2024-05-09T19:17:45.242Z,100221.75
2024-05-09T19:20:20.620Z,100226.19
2024-05-09T19:22:54.776Z,100219.31
2024-05-09T19:25:21.225Z,100235.78
2024-05-09T19:27:47.563Z,100235.00
2024-05-09T19:30:24.938Z,100242.97
2024-05-09T19:32:59.820Z,100234.81
2024-05-09T19:35:26.137Z,100235.75
2024-05-09T19:37:52.442Z,100240.28
2024-05-09T19:40:25.106Z,100243.72
2024-05-09T19:42:57.345Z,100246.44
2024-05-09T19:45:23.660Z,100251.34
2024-05-09T19:47:49.993Z,100253.41
2024-05-09T19:50:23.073Z,100249.66
2024-05-09T19:52:57.815Z,100254.38
2024-05-09T19:55:24.180Z,100254.28
2024-05-09T19:57:50.530Z,100255.16
2024-05-09T20:00:22.222Z,100253.69
2024-05-09T20:02:55.463Z,100257.50
2024-05-09T20:05:22.055Z,100253.25
2024-05-09T20:07:48.443Z,100257.41
2024-05-09T20:10:23.248Z,100264.19
2024-05-09T20:12:52.894Z,100259.75
2024-05-09T20:15:19.194Z,100269.38
2024-05-09T20:17:45.574Z,100262.13
2024-05-09T20:20:20.299Z,100268.59
2024-05-09T20:22:54.501Z,100266.78
2024-05-09T20:25:20.925Z,100270.25
2024-05-09T20:27:47.244Z,100264.13
2024-05-09T20:30:20.898Z,100273.72
2024-05-09T20:32:51.521Z,100270.44
2024-05-09T20:35:17.838Z,100265.81
2024-05-09T20:37:44.124Z,100270.09
2024-05-09T20:40:18.136Z,100272.72
2024-05-09T20:42:51.218Z,100279.13
2024-05-09T20:45:17.506Z,100271.84
2024-05-09T20:47:43.902Z,100274.00
2024-05-09T20:50:20.196Z,100270.34
2024-05-09T20:52:54.524Z,100269.50
2024-05-09T20:55:20.891Z,100266.03
2024-05-09T20:57:47.287Z,100270.84
2024-05-09T21:00:18.697Z,100266.84
2024-05-09T21:02:48.582Z,100277.41
2024-05-09T21:05:15.239Z,100266.63
2024-05-09T21:07:41.618Z,100275.56
2024-05-09T21:10:15.281Z,100264.00
2024-05-09T21:12:45.769Z,100266.00
2024-05-09T21:15:12.073Z,100270.41
2024-05-09T21:17:38.394Z,100271.22
2024-05-09T21:20:09.417Z,100271.41
2024-05-09T21:22:40.625Z,100271.69
2024-05-09T21:25:06.948Z,100268.84
2024-05-09T21:27:33.298Z,100271.97
2024-05-09T21:29:59.675Z,100273.97
2024-05-09T21:32:26.123Z,100279.75
2024-05-09T21:34:52.578Z,100283.63
2024-05-09T21:37:18.919Z,100278.66
2024-05-09T21:39:45.320Z,100280.41
2024-05-09T21:42:11.657Z,100283.22
2024-05-09T21:44:37.924Z,100287.38
2024-05-09T21:47:04.266Z,100287.50
2024-05-09T21:49:30.804Z,100288.38
2024-05-09T21:51:57.179Z,100284.44
2024-05-09T21:54:23.460Z,100284.59
2024-05-09T21:56:49.723Z,100282.28
2024-05-09T21:59:16.000Z,100281.88
2024-05-09T22:01:42.414Z,100285.06
2024-05-09T22:04:08.842Z,100282.53
2024-05-09T22:06:35.283Z,100284.81
2024-05-09T22:09:01.580Z,100276.41
2024-05-09T22:11:27.874Z,100276.72
2024-05-09T22:13:54.159Z,100273.66
2024-05-09T22:16:20.447Z,100274.59
2024-05-09T22:18:46.880Z,100274.28
2024-05-09T22:21:13.217Z,100275.53
2024-05-09T22:23:39.483Z,100279.94
2024-05-09T22:26:05.765Z,100273.38
2024-05-09T22:28:32.127Z,100276.69
2024-05-09T22:30:58.489Z,100281.63
2024-05-09T22:33:24.924Z,100280.53
2024-05-09T22:35:51.344Z,100283.09
2024-05-09T22:38:17.655Z,100279.97
2024-05-09T22:40:48.358Z,100280.09
2024-05-09T22:43:16.268Z,100283.41
2024-05-09T22:45:42.695Z,100283.41
2024-05-09T22:48:09.400Z,100291.19
2024-05-09T22:50:36.037Z,100286.81
2024-05-09T22:53:02.428Z,100277.81
2024-05-09T22:55:28.843Z,100280.91
2024-05-09T22:57:55.345Z,100279.19
2024-05-09T23:00:29.421Z,100282.28
2024-05-09T23:02:58.319Z,100285.09
2024-05-09T23:05:24.771Z,100277.72
2024-05-09T23:07:51.099Z,100278.13
2024-05-09T23:10:24.965Z,100281.56
2024-05-09T23:12:58.450Z,100279.38
2024-05-09T23:15:24.765Z,100285.13
2024-05-09T23:17:51.116Z,100283.13
2024-05-09T23:20:25.910Z,100277.53
2024-05-09T23:22:56.389Z,100282.19
2024-05-09T23:25:22.798Z,100282.31
2024-05-09T23:27:49.121Z,100278.75
2024-05-09T23:30:25.381Z,100281.25
2024-05-09T23:32:55.755Z,100270.88
2024-05-09T23:35:22.060Z,100272.34
2024-05-09T23:37:48.328Z,100263.72
2024-05-09T23:40:18.744Z,100261.66
2024-05-09T23:42:48.991Z,100260.00
2024-05-09T23:45:15.345Z,100262.50
2024-05-09T23:47:41.855Z,100260.00
2024-05-09T23:50:16.242Z,100263.03
2024-05-09T23:52:46.682Z,100258.88
2024-05-09T23:55:13.109Z,100257.91
2024-05-09T23:57:39.505Z,100252.44
